Time;durP1;ratioP1;P1;durP2;ratioP2;P2;SDS_P1;SDS_P2;PMS_P1;PMS_P2;Temp;Humidity;BMP_temperature;BMP_pressure;BME280_temperature;BME280_humidity;BME280_pressure;Samples;Min_cycle;Max_cycle;Signal;HPM_P1;HPM_P2
2022/07/05 00:02:24;;;;;;;4.95;2.78;;;32.80;52.10;;;;;;5054302;28;20037;-81
2022/07/05 00:04:50;;;;;;;6.95;3.03;;;32.70;52.40;;;;;;5070897;28;20475;-83
2022/07/05 00:07:19;;;;;;;5.97;3.03;;;32.50;52.50;;;;;;5055744;28;20119;-82
2022/07/05 00:09:47;;;;;;;6.30;2.65;;;32.20;53.10;;;;;;5054273;28;20052;-85
2022/07/05 00:12:13;;;;;;;5.18;2.90;;;32.00;53.40;;;;;;5053606;28;20055;-83
2022/07/05 00:14:40;;;;;;;5.00;2.83;;;32.10;53.40;;;;;;5072982;28;20056;-83
2022/07/05 00:17:06;;;;;;;7.03;3.63;;;32.00;53.60;;;;;;5055295;28;20086;-85
2022/07/05 00:19:32;;;;;;;6.68;3.17;;;32.00;53.50;;;;;;5051339;28;20509;-79
2022/07/05 00:21:59;;;;;;;9.43;3.05;;;32.00;53.50;;;;;;5066783;28;20506;-84
2022/07/05 00:24:25;;;;;;;7.85;3.65;;;31.80;53.70;;;;;;5050991;28;20052;-85
2022/07/05 00:26:51;;;;;;;7.53;3.30;;;31.60;54.40;;;;;;5047506;28;20037;-85
2022/07/05 00:29:17;;;;;;;5.32;3.03;;;31.70;54.30;;;;;;5053516;28;20051;-87
2022/07/05 00:31:43;;;;;;;4.60;2.80;;;31.70;54.30;;;;;;5052608;28;20033;-82
2022/07/05 00:34:09;;;;;;;7.68;3.42;;;31.80;54.30;;;;;;5050711;28;20482;-94
2022/07/05 00:36:34;;;;;;;7.50;3.05;;;31.90;54.20;;;;;;5055637;28;20028;-89
2022/07/05 00:39:00;;;;;;;4.88;3.03;;;31.70;54.60;;;;;;5056011;28;20033;-86
2022/07/05 00:41:26;;;;;;;6.53;3.00;;;31.70;54.70;;;;;;5055015;28;20426;-85
2022/07/05 00:43:57;;;;;;;4.80;2.88;;;32.00;54.90;;;;;;5055169;28;20032;-88
2022/07/05 00:46:24;;;;;;;5.25;2.80;;;32.10;54.10;;;;;;5053859;28;20132;-85
2022/07/05 00:48:50;;;;;;;5.97;3.10;;;32.40;53.90;;;;;;5055089;28;20024;-80
2022/07/05 00:51:16;;;;;;;6.28;2.88;;;32.40;53.60;;;;;;5054883;28;20033;-82
2022/07/05 00:53:43;;;;;;;7.70;2.80;;;32.30;53.80;;;;;;5053670;28;20025;-85
2022/07/05 00:56:10;;;;;;;7.07;2.80;;;32.30;53.90;;;;;;5056484;28;20074;-80
2022/07/05 00:58:36;;;;;;;4.95;2.80;;;32.20;54.00;;;;;;5053374;28;20483;-79
2022/07/05 01:01:03;;;;;;;5.40;3.03;;;32.30;53.80;;;;;;5054953;28;20029;-85
2022/07/05 01:03:29;;;;;;;4.75;3.03;;;32.20;54.00;;;;;;5053366;28;20041;-84
2022/07/05 01:05:56;;;;;;;4.40;2.90;;;32.00;54.30;;;;;;5055241;28;20549;-81
2022/07/05 01:08:24;;;;;;;5.43;2.80;;;31.90;54.30;;;;;;5053555;28;20422;-86
2022/07/05 01:10:51;;;;;;;5.35;3.03;;;31.80;54.50;;;;;;5053249;28;20029;-78
2022/07/05 01:13:17;;;;;;;5.40;2.92;;;31.80;54.60;;;;;;5054002;28;20369;-91
2022/07/05 01:15:44;;;;;;;4.47;2.60;;;31.80;54.40;;;;;;5054411;28;20040;-82
2022/07/05 01:18:10;;;;;;;5.15;3.05;;;31.70;54.60;;;;;;5054333;28;20029;-87
2022/07/05 01:20:36;;;;;;;7.22;2.92;;;31.80;54.60;;;;;;5055958;28;20033;-89
2022/07/05 01:23:04;;;;;;;4.65;2.85;;;31.80;54.50;;;;;;5053888;28;20055;-82
2022/07/05 01:25:30;;;;;;;5.10;3.00;;;31.80;54.50;;;;;;5051507;28;20049;-91
2022/07/05 01:27:58;;;;;;;7.03;2.58;;;31.90;54.30;;;;;;5036304;28;20049;-86
2022/07/05 01:30:25;;;;;;;6.60;2.78;;;31.90;54.30;;;;;;5052604;28;20391;-85
2022/07/05 01:32:51;;;;;;;6.05;2.78;;;31.80;54.20;;;;;;5053553;28;20036;-79
2022/07/05 01:35:20;;;;;;;3.67;2.80;;;31.90;54.20;;;;;;5055100;28;20021;-82
2022/07/05 01:37:49;;;;;;;4.88;2.70;;;32.10;53.90;;;;;;5053619;28;20145;-84
2022/07/05 01:40:16;;;;;;;9.02;2.85;;;32.10;53.80;;;;;;5055067;28;20021;-88
2022/07/05 01:42:41;;;;;;;4.40;3.00;;;31.90;53.80;;;;;;5053298;28;20399;-86
2022/07/05 01:45:08;;;;;;;4.03;2.72;;;31.80;54.00;;;;;;5053104;28;20529;-86
2022/07/05 01:47:40;;;;;;;8.05;3.00;;;31.70;54.20;;;;;;5052453;28;20029;-88
2022/07/05 01:50:07;;;;;;;5.63;2.70;;;31.80;54.10;;;;;;5054833;28;20028;-80
2022/07/05 01:52:36;;;;;;;5.60;3.00;;;31.80;54.00;;;;;;5053590;28;20029;-90
2022/07/05 01:55:03;;;;;;;4.40;2.60;;;31.80;54.10;;;;;;5048503;28;20032;-88
2022/07/05 01:57:29;;;;;;;4.15;2.60;;;31.90;53.90;;;;;;5053962;28;20040;-84
2022/07/05 01:59:55;;;;;;;5.18;2.50;;;32.00;54.20;;;;;;5054708;28;20029;-80
2022/07/05 02:02:20;;;;;;;8.05;3.08;;;32.10;53.70;;;;;;5053100;28;20491;-86
2022/07/05 02:04:46;;;;;;;5.10;2.80;;;32.20;53.60;;;;;;5054658;28;20029;-87
2022/07/05 02:07:12;;;;;;;4.50;2.85;;;32.40;53.40;;;;;;5055687;28;20036;-91
2022/07/05 02:09:38;;;;;;;4.43;3.00;;;32.50;53.20;;;;;;5053780;28;20025;-90
2022/07/05 02:12:05;;;;;;;6.75;2.90;;;32.50;53.00;;;;;;5053472;28;20493;-77
2022/07/05 02:14:31;;;;;;;5.32;2.75;;;32.40;53.20;;;;;;5053531;28;20028;-91
2022/07/05 02:16:57;;;;;;;4.80;2.90;;;32.30;53.30;;;;;;5052745;28;20511;-80
2022/07/05 02:19:23;;;;;;;4.53;2.72;;;32.00;53.50;;;;;;5053032;28;20119;-81
2022/07/05 02:21:49;;;;;;;3.88;2.50;;;32.00;53.60;;;;;;5051647;28;20051;-80
2022/07/05 02:24:14;;;;;;;4.85;2.58;;;32.10;53.60;;;;;;5054985;28;20388;-79
2022/07/05 02:26:40;;;;;;;3.38;2.28;;;32.10;53.50;;;;;;5056492;28;20039;-80
2022/07/05 02:29:06;;;;;;;4.65;2.90;;;32.00;53.50;;;;;;5055148;28;20043;-84
2022/07/05 02:31:32;;;;;;;9.48;3.42;;;32.00;53.30;;;;;;5056439;28;20525;-81
2022/07/05 02:33:58;;;;;;;4.97;2.83;;;32.10;53.40;;;;;;5055790;28;20024;-90
2022/07/05 02:36:24;;;;;;;5.68;2.83;;;32.20;53.20;;;;;;5053941;28;20032;-83
2022/07/05 02:38:50;;;;;;;3.60;2.60;;;32.20;53.20;;;;;;5056348;28;20043;-83
2022/07/05 02:41:16;;;;;;;6.05;2.70;;;32.40;53.00;;;;;;5056498;28;20391;-87
2022/07/05 02:43:42;;;;;;;5.07;2.70;;;32.40;52.80;;;;;;5073065;28;20047;-86
2022/07/05 02:46:08;;;;;;;3.80;2.67;;;32.50;52.90;;;;;;5056112;28;20123;-94
2022/07/05 02:48:36;;;;;;;5.28;2.53;;;32.40;52.80;;;;;;5055451;28;20108;-89
2022/07/05 02:51:02;;;;;;;4.85;2.50;;;32.40;52.80;;;;;;5055427;28;20360;-80
2022/07/05 02:53:29;;;;;;;4.15;2.55;;;32.50;52.70;;;;;;5056957;28;20444;-86
2022/07/05 02:55:55;;;;;;;4.28;2.60;;;32.70;52.30;;;;;;5056858;28;20132;-79
2022/07/05 02:58:21;;;;;;;8.05;2.90;;;32.70;52.40;;;;;;5072638;28;20036;-85
2022/07/05 03:00:49;;;;;;;3.92;2.60;;;32.60;52.40;;;;;;5055255;28;20052;-79
2022/07/05 03:03:15;;;;;;;3.97;2.58;;;32.40;52.50;;;;;;5055009;28;20021;-80
2022/07/05 03:05:41;;;;;;;4.40;2.80;;;32.30;52.70;;;;;;5071743;28;20041;-87
2022/07/05 03:08:07;;;;;;;5.18;2.80;;;32.20;52.70;;;;;;5071527;28;20024;-80
2022/07/05 03:10:34;;;;;;;7.60;2.75;;;32.20;52.90;;;;;;5073870;28;20035;-79
2022/07/05 03:13:00;;;;;;;3.78;2.72;;;32.10;53.20;;;;;;5073864;28;20024;-78
2022/07/05 03:15:26;;;;;;;5.72;2.78;;;32.00;53.00;;;;;;5073290;28;20024;-80
2022/07/05 03:17:51;;;;;;;5.85;2.80;;;31.90;53.30;;;;;;5056150;28;20031;-89
2022/07/05 03:20:18;;;;;;;4.60;3.20;;;32.00;53.40;;;;;;5054416;28;20046;-80
2022/07/05 03:22:43;;;;;;;4.53;2.80;;;32.20;53.00;;;;;;5071806;28;20056;-85
2022/07/05 03:25:09;;;;;;;5.13;2.72;;;32.20;52.90;;;;;;5055058;28;20094;-85
2022/07/05 03:27:36;;;;;;;4.25;2.80;;;32.40;52.70;;;;;;5035115;28;20045;-81
2022/07/05 03:30:04;;;;;;;4.60;2.63;;;32.50;52.60;;;;;;5044706;28;20048;-82
2022/07/05 03:32:30;;;;;;;3.95;2.70;;;32.60;52.70;;;;;;5035822;28;20033;-87
2022/07/05 03:34:55;;;;;;;4.18;2.80;;;32.40;52.60;;;;;;5068955;28;20070;-81
2022/07/05 03:37:21;;;;;;;6.57;2.85;;;32.30;52.80;;;;;;5072397;28;20039;-86
2022/07/05 03:39:47;;;;;;;3.97;3.10;;;32.20;53.00;;;;;;5053187;28;20032;-80
2022/07/05 03:42:12;;;;;;;4.15;2.70;;;32.10;53.30;;;;;;5055415;28;20062;-80
2022/07/05 03:44:38;;;;;;;5.32;2.70;;;31.90;53.50;;;;;;5072292;28;20070;-81
2022/07/05 03:47:04;;;;;;;4.50;2.90;;;31.90;53.70;;;;;;5070343;28;20387;-79
2022/07/05 03:49:29;;;;;;;4.07;2.53;;;31.80;53.70;;;;;;5072833;28;20119;-85
2022/07/05 03:51:55;;;;;;;4.32;2.88;;;31.90;53.80;;;;;;5072192;28;20143;-85
2022/07/05 03:54:21;;;;;;;7.13;2.92;;;31.80;53.90;;;;;;5052404;28;20020;-79
2022/07/05 03:56:47;;;;;;;7.38;2.90;;;31.70;54.00;;;;;;5055687;28;20043;-80
2022/07/05 03:59:12;;;;;;;5.30;2.80;;;31.70;54.20;;;;;;5054717;28;20024;-80
2022/07/05 04:01:38;;;;;;;5.10;2.78;;;31.80;54.30;;;;;;5053054;28;20032;-85
2022/07/05 04:04:04;;;;;;;4.47;2.97;;;31.70;54.00;;;;;;5072623;28;20379;-81
2022/07/05 04:06:30;;;;;;;4.45;2.65;;;31.70;54.20;;;;;;5072945;28;20024;-83
2022/07/05 04:08:57;;;;;;;3.80;2.70;;;31.60;54.40;;;;;;5053983;28;20017;-79
2022/07/05 04:11:23;;;;;;;4.20;3.05;;;31.50;54.70;;;;;;5074925;28;20041;-84
2022/07/05 04:13:49;;;;;;;4.55;2.83;;;31.50;54.60;;;;;;5056898;28;20032;-90
2022/07/05 04:16:15;;;;;;;4.85;2.83;;;31.60;54.50;;;;;;5077507;28;20021;-79
2022/07/05 04:18:40;;;;;;;4.47;2.80;;;31.70;54.70;;;;;;5075764;28;20025;-79
2022/07/05 04:21:06;;;;;;;5.28;3.10;;;31.70;54.30;;;;;;5076083;28;20033;-84
2022/07/05 04:23:32;;;;;;;6.22;2.83;;;31.60;54.30;;;;;;5058153;28;20025;-79
2022/07/05 04:25:59;;;;;;;4.82;3.00;;;31.60;54.50;;;;;;5076279;28;20067;-79
2022/07/05 04:28:26;;;;;;;6.30;2.78;;;31.50;54.60;;;;;;5075435;28;20038;-89
2022/07/05 04:30:52;;;;;;;4.32;2.75;;;31.50;54.70;;;;;;5077120;28;20033;-83
2022/07/05 04:33:17;;;;;;;4.32;2.65;;;31.60;54.50;;;;;;5076000;28;20506;-81
2022/07/05 04:35:43;;;;;;;6.22;2.70;;;31.70;54.50;;;;;;5076780;28;20024;-90
2022/07/05 04:38:09;;;;;;;5.05;2.70;;;32.00;54.20;;;;;;5058235;28;20032;-93
2022/07/05 04:40:35;;;;;;;4.43;2.88;;;32.10;54.00;;;;;;5052529;28;20025;-83
2022/07/05 04:43:01;;;;;;;4.20;2.75;;;32.10;54.00;;;;;;5075281;28;20040;-79
2022/07/05 04:45:26;;;;;;;5.30;2.72;;;32.20;54.10;;;;;;5076156;28;20039;-86
2022/07/05 04:47:52;;;;;;;4.00;2.80;;;32.30;53.80;;;;;;5076565;28;20134;-91
2022/07/05 04:50:18;;;;;;;3.53;2.55;;;32.30;54.00;;;;;;5057807;28;20024;-82
2022/07/05 04:52:43;;;;;;;4.85;2.97;;;32.40;54.00;;;;;;5057633;28;20067;-85
2022/07/05 04:55:09;;;;;;;4.60;2.83;;;32.60;53.50;;;;;;5051927;28;20087;-89
2022/07/05 04:57:42;;;;;;;3.70;2.75;;;32.80;53.70;;;;;;5075243;28;20391;-88
2022/07/05 05:00:13;;;;;;;5.63;2.75;;;32.90;53.50;;;;;;5075570;28;20104;-90
2022/07/05 05:02:40;;;;;;;3.75;2.60;;;32.80;53.70;;;;;;5058849;28;20032;-90
2022/07/05 05:05:07;;;;;;;5.03;2.88;;;32.80;53.60;;;;;;5058256;28;20502;-81
2022/07/05 05:07:34;;;;;;;5.60;2.80;;;32.80;53.60;;;;;;5055582;28;20041;-87
2022/07/05 05:10:00;;;;;;;4.38;2.53;;;32.60;53.90;;;;;;5076176;28;20073;-81
2022/07/05 05:12:26;;;;;;;8.88;3.33;;;32.60;53.90;;;;;;5058078;28;20546;-92
2022/07/05 05:14:51;;;;;;;7.38;3.05;;;32.60;53.90;;;;;;5058725;28;20043;-86
2022/07/05 05:17:22;;;;;;;4.93;2.80;;;32.60;53.50;;;;;;5059608;28;20047;-90
2022/07/05 05:19:48;;;;;;;4.40;2.70;;;32.60;53.80;;;;;;5076567;28;20020;-85
2022/07/05 05:22:14;;;;;;;3.88;2.78;;;32.50;54.00;;;;;;5057372;28;20028;-83
2022/07/05 05:24:39;;;;;;;4.75;2.95;;;32.20;54.20;;;;;;5057880;28;20049;-83
2022/07/05 05:27:05;;;;;;;4.47;3.28;;;32.10;54.40;;;;;;5075941;28;20041;-80
2022/07/05 05:29:31;;;;;;;6.13;2.90;;;31.80;54.60;;;;;;5075318;28;20051;-85
2022/07/05 05:31:57;;;;;;;5.82;2.70;;;31.70;54.80;;;;;;5057939;28;20158;-87
2022/07/05 05:34:22;;;;;;;5.93;2.78;;;31.60;54.90;;;;;;5075829;28;20368;-81
2022/07/05 05:36:48;;;;;;;7.07;2.88;;;31.70;55.00;;;;;;5074334;28;20037;-90
2022/07/05 05:39:14;;;;;;;6.00;2.90;;;31.80;55.20;;;;;;5057956;28;20050;-84
2022/07/05 05:41:41;;;;;;;5.32;2.90;;;32.00;54.90;;;;;;5076367;28;20416;-91
2022/07/05 05:44:07;;;;;;;5.25;3.10;;;32.00;54.80;;;;;;5057832;28;20028;-82
2022/07/05 05:46:32;;;;;;;4.88;2.95;;;32.00;54.80;;;;;;5057826;28;20043;-83
2022/07/05 05:48:58;;;;;;;7.03;2.63;;;32.00;54.90;;;;;;5057626;28;20032;-77
2022/07/05 05:51:24;;;;;;;6.25;2.83;;;32.10;55.20;;;;;;5075116;28;20056;-85
2022/07/05 05:53:50;;;;;;;5.88;2.70;;;31.90;55.20;;;;;;5056964;28;20021;-86
2022/07/05 05:56:16;;;;;;;4.75;2.90;;;32.00;55.30;;;;;;5088529;28;20503;-84
2022/07/05 05:58:42;;;;;;;5.38;2.90;;;32.10;55.20;;;;;;5057490;28;20029;-89
2022/07/05 06:01:07;;;;;;;5.68;2.95;;;32.20;55.40;;;;;;5075282;28;20032;-85
2022/07/05 06:03:33;;;;;;;4.40;2.90;;;32.10;55.40;;;;;;5055176;28;20066;-81
2022/07/05 06:05:59;;;;;;;4.88;2.90;;;32.00;55.70;;;;;;5074801;28;20111;-79
2022/07/05 06:08:24;;;;;;;5.60;2.90;;;31.90;56.30;;;;;;5074837;28;20021;-88
2022/07/05 06:10:50;;;;;;;4.28;3.00;;;32.00;56.00;;;;;;5058078;28;20024;-88
2022/07/05 06:13:16;;;;;;;3.80;2.80;;;32.10;55.60;;;;;;5057991;28;20028;-80
2022/07/05 06:15:42;;;;;;;4.88;2.90;;;32.10;55.70;;;;;;5057633;28;20551;-85
2022/07/05 06:18:11;;;;;;;3.97;2.90;;;32.20;55.50;;;;;;5075505;28;20032;-83
2022/07/05 06:20:38;;;;;;;4.47;2.90;;;32.30;55.50;;;;;;5057121;28;20471;-79
2022/07/05 06:23:05;;;;;;;6.95;3.10;;;32.20;55.40;;;;;;5057171;28;20024;-83
2022/07/05 06:25:32;;;;;;;4.50;3.33;;;32.10;55.80;;;;;;5056877;28;20036;-84
2022/07/05 06:28:07;;;;;;;5.25;3.00;;;31.80;56.10;;;;;;5057318;28;20390;-80
2022/07/05 06:30:37;;;;;;;6.72;3.13;;;31.80;56.10;;;;;;5057312;28;20031;-84
2022/07/05 06:33:03;;;;;;;;;;;31.70;56.50;;;;;;5057504;28;20550;-88
2022/07/05 06:35:30;;;;;;;6.07;3.10;;;31.70;56.20;;;;;;5057224;28;20015;-90
2022/07/05 06:38:02;;;;;;;4.30;2.90;;;31.50;56.60;;;;;;5057727;28;20021;-80
2022/07/05 06:40:33;;;;;;;4.82;3.30;;;31.30;56.70;;;;;;5075087;28;20370;-80
2022/07/05 06:43:01;;;;;;;5.00;3.10;;;31.20;57.40;;;;;;5056547;28;20074;-88
2022/07/05 06:45:27;;;;;;;4.13;2.95;;;31.10;57.90;;;;;;5074541;28;20040;-90
2022/07/05 06:47:57;;;;;;;4.85;2.72;;;31.10;57.90;;;;;;5057573;28;20047;-92
2022/07/05 06:50:23;;;;;;;;;;;31.20;57.80;;;;;;5056977;28;20044;-85
2022/07/05 06:52:49;;;;;;;3.63;2.65;;;31.20;57.20;;;;;;5056892;28;20033;-80
2022/07/05 06:55:14;;;;;;;3.83;2.70;;;31.20;57.70;;;;;;5056789;28;20031;-80
2022/07/05 06:57:40;;;;;;;4.55;3.00;;;30.90;58.00;;;;;;5074934;28;20481;-83
2022/07/05 07:00:10;;;;;;;6.47;3.05;;;30.70;58.60;;;;;;5075021;28;20028;-85
2022/07/05 07:02:36;;;;;;;3.70;2.75;;;30.40;59.10;;;;;;5074356;28;20039;-91
2022/07/05 07:05:01;;;;;;;5.93;3.00;;;30.50;58.80;;;;;;5056042;28;20021;-84
2022/07/05 07:10:11;;;;;;;5.32;3.20;;;30.60;58.90;;;;;;5073537;28;20514;-86
2022/07/05 07:12:37;;;;;;;4.90;2.70;;;30.80;58.10;;;;;;5055845;28;20056;-81
2022/07/05 07:15:06;;;;;;;6.47;2.97;;;30.30;58.60;;;;;;5054885;28;20687;-95
2022/07/05 07:17:32;;;;;;;5.03;2.80;;;30.30;59.30;;;;;;5074283;28;20403;-84
2022/07/05 07:19:58;;;;;;;5.82;2.80;;;30.30;58.50;;;;;;5074017;28;20054;-89
2022/07/05 07:22:23;;;;;;;9.10;2.97;;;30.70;58.30;;;;;;5055610;28;20028;-84
2022/07/05 07:24:49;;;;;;;6.00;2.92;;;31.10;58.00;;;;;;5073809;28;20079;-91
2022/07/05 07:27:15;;;;;;;5.72;2.50;;;31.30;57.30;;;;;;5056477;28;20036;-83
2022/07/05 07:29:41;;;;;;;4.10;2.50;;;31.60;56.90;;;;;;5056123;28;20055;-87
2022/07/05 07:32:08;;;;;;;4.32;2.78;;;31.90;56.90;;;;;;5056426;28;20033;-89
2022/07/05 07:34:36;;;;;;;5.50;2.60;;;32.00;55.70;;;;;;5056815;28;20467;-89
2022/07/05 07:37:02;;;;;;;4.28;3.17;;;32.20;56.60;;;;;;5057753;28;20038;-87
2022/07/05 07:39:28;;;;;;;4.13;2.80;;;32.40;55.80;;;;;;5056477;28;20526;-83
2022/07/05 07:41:54;;;;;;;5.32;2.55;;;32.80;56.40;;;;;;5056164;28;20112;-79
2022/07/05 07:44:20;;;;;;;4.47;2.70;;;32.80;54.70;;;;;;5055560;28;20020;-84
2022/07/05 07:46:46;;;;;;;5.28;2.47;;;32.90;55.60;;;;;;5056166;28;20044;-86
2022/07/05 07:49:12;;;;;;;4.85;2.50;;;32.90;55.70;;;;;;5074109;28;20031;-80
2022/07/05 07:51:38;;;;;;;5.30;2.65;;;32.90;54.80;;;;;;5055677;28;20025;-86
2022/07/05 07:54:04;;;;;;;4.50;2.67;;;32.70;55.20;;;;;;5055882;28;20021;-86
2022/07/05 07:56:30;;;;;;;10.27;9.23;;;32.70;55.70;;;;;;5055439;28;20032;-87
2022/07/05 07:58:56;;;;;;;5.63;2.65;;;32.60;54.60;;;;;;5055106;28;20154;-82
2022/07/05 08:01:22;;;;;;;4.88;2.42;;;32.40;55.00;;;;;;5073966;28;20078;-85
2022/07/05 08:03:48;;;;;;;4.32;2.50;;;32.30;55.60;;;;;;5055656;28;20025;-83
2022/07/05 08:06:15;;;;;;;6.25;2.25;;;32.20;55.30;;;;;;5056032;28;20043;-81
2022/07/05 08:08:43;;;;;;;3.67;2.40;;;32.10;55.40;;;;;;5074465;28;20107;-91
2022/07/05 08:11:10;;;;;;;3.15;2.15;;;32.00;55.70;;;;;;5055717;28;20380;-81
2022/07/05 08:13:36;;;;;;;4.30;2.30;;;31.80;56.60;;;;;;5056251;28;20017;-84
2022/07/05 08:16:03;;;;;;;3.95;2.20;;;31.90;56.20;;;;;;5055313;28;20032;-84
2022/07/05 08:21:30;;;;;;;3.85;2.40;;;32.10;55.60;;;;;;5074076;28;20493;-89
2022/07/05 08:24:00;;;;;;;3.55;2.30;;;31.90;55.80;;;;;;5074288;28;20111;-84
2022/07/05 08:26:26;;;;;;;3.42;2.22;;;31.80;55.80;;;;;;5055082;28;20155;-87
2022/07/05 08:28:52;;;;;;;3.80;2.35;;;31.50;56.00;;;;;;5073309;28;20493;-87
2022/07/05 08:31:18;;;;;;;7.50;2.30;;;31.40;56.50;;;;;;5089511;28;20037;-90
2022/07/05 08:33:44;;;;;;;3.50;2.40;;;31.50;56.20;;;;;;5056866;28;20051;-84
2022/07/05 08:36:10;;;;;;;4.78;2.40;;;31.60;56.40;;;;;;5089845;28;20024;-90
2022/07/05 08:38:36;;;;;;;3.85;2.10;;;31.60;56.20;;;;;;5089841;28;20147;-81
2022/07/05 08:41:02;;;;;;;6.57;2.45;;;31.60;55.60;;;;;;5073350;28;20021;-80
2022/07/05 08:43:29;;;;;;;8.02;2.47;;;31.40;56.90;;;;;;5073950;28;20493;-86
2022/07/05 08:45:58;;;;;;;4.55;2.45;;;31.40;56.90;;;;;;5073652;28;20133;-88
2022/07/05 08:48:24;;;;;;;3.92;2.50;;;31.60;56.40;;;;;;5073278;28;20024;-87
2022/07/05 08:50:51;;;;;;;5.68;2.40;;;31.40;56.30;;;;;;5073620;28;20158;-90
2022/07/05 08:53:20;;;;;;;6.32;2.47;;;31.40;56.90;;;;;;5073637;28;20055;-89
2022/07/05 08:55:46;;;;;;;4.82;2.28;;;31.50;56.70;;;;;;5057031;28;20176;-80
2022/07/05 08:58:12;;;;;;;4.35;2.47;;;31.70;56.70;;;;;;5076880;28;20029;-83
2022/07/05 09:00:43;;;;;;;3.17;2.30;;;31.80;56.40;;;;;;4743103;28;10000262;-78
2022/07/05 09:03:11;;;;;;;5.30;2.30;;;32.00;56.50;;;;;;5095146;28;20077;-80
2022/07/05 09:05:43;;;;;;;5.55;2.20;;;31.90;56.00;;;;;;5095201;28;20070;-82
2022/07/05 09:08:16;;;;;;;5.72;2.35;;;31.90;55.90;;;;;;5095010;28;20492;-81
2022/07/05 09:10:43;;;;;;;6.60;2.20;;;32.00;55.20;;;;;;5076568;28;20058;-85
2022/07/05 09:13:09;;;;;;;4.82;2.15;;;32.10;54.80;;;;;;5076398;28;20103;-81
2022/07/05 09:15:42;;;;;;;5.47;2.10;;;31.60;55.70;;;;;;5094381;28;20024;-85
2022/07/05 09:18:10;;;;;;;5.05;2.45;;;31.50;55.30;;;;;;5077663;28;20039;-84
2022/07/05 09:20:36;;;;;;;3.10;2.30;;;31.40;56.10;;;;;;5077679;28;20114;-85
2022/07/05 09:23:02;;;;;;;3.53;2.20;;;31.40;56.10;;;;;;5077500;28;20050;-83
2022/07/05 09:25:30;;;;;;;5.65;2.67;;;31.40;56.30;;;;;;5077008;28;20497;-88
2022/07/05 09:28:07;;;;;;;3.75;2.50;;;31.40;57.00;;;;;;5077083;28;20027;-76
2022/07/05 09:30:37;;;;;;;3.78;2.60;;;31.20;57.00;;;;;;5094689;28;20046;-86
2022/07/05 09:33:03;;;;;;;6.30;3.60;;;31.00;57.10;;;;;;5094727;28;20095;-85
2022/07/05 09:35:30;;;;;;;4.80;3.00;;;30.80;57.40;;;;;;5076508;28;20075;-82
2022/07/05 09:37:56;;;;;;;4.38;2.80;;;30.70;58.10;;;;;;5076712;28;20024;-88
2022/07/05 09:40:22;;;;;;;4.03;2.70;;;30.70;57.50;;;;;;5078531;28;20038;-79
2022/07/05 09:42:48;;;;;;;6.57;2.60;;;30.80;58.00;;;;;;5075738;28;20020;-78
2022/07/05 09:45:23;;;;;;;5.18;2.88;;;30.40;56.70;;;;;;5095128;28;20028;-83
2022/07/05 09:47:49;;;;;;;6.85;2.97;;;30.70;58.10;;;;;;5074928;28;20478;-82
2022/07/05 09:50:32;;;;;;;4.15;2.90;;;30.80;58.00;;;;;;5093155;28;20024;-84
2022/07/05 09:52:57;;;;;;;4.15;3.00;;;30.90;58.10;;;;;;5075119;28;20474;-79
2022/07/05 09:55:23;;;;;;;5.15;3.25;;;30.80;57.90;;;;;;5074710;28;20020;-85
2022/07/05 09:57:50;;;;;;;11.13;3.65;;;30.90;57.90;;;;;;5076582;28;20020;-89
2022/07/05 10:00:21;;;;;;;6.20;3.50;;;30.80;58.20;;;;;;5087202;28;20066;-83
2022/07/05 10:02:53;;;;;;;5.63;3.55;;;30.70;58.50;;;;;;5055971;28;20033;-81
2022/07/05 10:05:20;;;;;;;5.57;3.28;;;30.60;59.20;;;;;;5056615;28;20040;-83
2022/07/05 10:08:15;;;;;;;6.20;3.40;;;30.60;58.60;;;;;;5072236;28;20082;-88
2022/07/05 10:10:43;;;;;;;7.15;3.17;;;30.40;58.80;;;;;;5050581;28;20025;-80
2022/07/05 10:13:09;;;;;;;5.13;3.20;;;30.20;58.60;;;;;;5073113;28;20379;-83
2022/07/05 10:15:35;;;;;;;5.10;3.28;;;29.80;59.60;;;;;;5056031;28;20585;-77
2022/07/05 10:18:22;;;;;;;7.05;3.30;;;29.70;60.00;;;;;;5056112;28;20039;-84
2022/07/05 10:20:51;;;;;;;11.32;8.57;;;29.70;60.10;;;;;;5056161;28;20517;-80
2022/07/05 10:23:18;;;;;;;11.90;3.63;;;29.70;60.40;;;;;;5072683;28;20028;-89
2022/07/05 10:25:49;;;;;;;4.47;3.30;;;29.80;60.30;;;;;;5053883;28;20118;-77
2022/07/05 10:28:20;;;;;;;4.68;3.38;;;29.80;60.30;;;;;;5072749;28;20056;-82
2022/07/05 10:30:46;;;;;;;5.55;3.60;;;29.80;60.90;;;;;;5054558;28;20028;-81
2022/07/05 10:33:16;;;;;;;5.10;3.40;;;29.80;61.10;;;;;;5072862;28;20516;-79
2022/07/05 10:35:45;;;;;;;8.70;3.83;;;29.40;62.00;;;;;;5071662;28;20082;-82
2022/07/05 10:38:12;;;;;;;7.38;4.00;;;29.30;62.90;;;;;;5071597;28;20115;-83
2022/07/05 10:40:42;;;;;;;6.45;3.85;;;28.80;63.60;;;;;;5055121;28;20028;-79
2022/07/05 10:43:10;;;;;;;7.00;3.97;;;28.90;63.80;;;;;;5073102;28;20025;-82
2022/07/05 10:45:41;;;;;;;5.07;3.67;;;28.90;64.50;;;;;;5055012;28;20078;-81
2022/07/05 10:48:09;;;;;;;5.78;3.95;;;28.70;65.70;;;;;;5073128;28;20074;-84
2022/07/05 10:50:58;;;;;;;5.20;4.03;;;28.80;65.70;;;;;;5054748;28;20029;-83
2022/07/05 10:53:36;;;;;;;6.88;4.40;;;29.10;65.30;;;;;;5073128;28;20096;-79
2022/07/05 10:56:05;;;;;;;5.30;3.70;;;29.00;65.70;;;;;;5054604;28;20342;-80
2022/07/05 10:58:41;;;;;;;5.40;4.18;;;28.80;65.50;;;;;;5052785;28;20025;-79
2022/07/05 11:01:13;;;;;;;5.53;4.20;;;28.60;66.00;;;;;;5069554;28;20471;-81
2022/07/05 11:03:40;;;;;;;5.32;3.83;;;28.60;66.50;;;;;;5069929;28;20036;-77
2022/07/05 11:06:07;;;;;;;7.03;4.40;;;28.80;66.00;;;;;;5052725;28;20405;-90
2022/07/05 11:08:55;;;;;;;4.78;3.60;;;28.70;66.20;;;;;;5070908;28;20466;-83
2022/07/05 11:11:31;;;;;;;5.90;3.50;;;28.40;66.80;;;;;;5071356;28;20055;-74
2022/07/05 11:14:00;;;;;;;6.07;3.63;;;27.80;67.10;;;;;;5052446;28;20086;-81
2022/07/05 11:16:36;;;;;;;4.38;3.40;;;27.50;68.70;;;;;;5051980;28;20071;-76
2022/07/05 11:19:09;;;;;;;5.65;3.05;;;27.40;68.90;;;;;;5070186;28;20083;-73
2022/07/05 11:21:36;;;;;;;5.35;3.03;;;27.30;69.50;;;;;;5071596;28;20047;-78
2022/07/05 11:24:23;;;;;;;5.32;2.92;;;26.30;71.00;;;;;;5071010;28;20028;-82
2022/07/05 11:26:52;;;;;;;5.82;3.13;;;25.60;73.20;;;;;;5070817;28;20040;-77
2022/07/05 11:29:39;;;;;;;3.83;2.53;;;25.90;73.90;;;;;;5070451;28;20100;-76
2022/07/05 11:32:06;;;;;;;4.57;2.80;;;26.50;71.80;;;;;;5070134;28;20090;-75
2022/07/05 11:34:33;;;;;;;5.07;2.72;;;26.90;69.90;;;;;;5070314;28;20111;-76
2022/07/05 11:37:24;;;;;;;3.90;2.67;;;27.20;69.70;;;;;;5050430;28;20026;-77
2022/07/05 11:40:10;;;;;;;4.28;2.60;;;27.40;68.20;;;;;;5068511;28;20031;-79
2022/07/05 11:42:39;;;;;;;4.57;2.67;;;27.60;67.70;;;;;;5066568;28;20055;-80
2022/07/05 11:45:14;;;;;;;4.53;2.58;;;27.80;67.20;;;;;;5049058;28;20009;-78
2022/07/05 11:47:41;;;;;;;4.00;2.50;;;28.00;66.50;;;;;;5066552;28;20040;-84
2022/07/05 11:50:08;;;;;;;4.13;2.47;;;28.10;65.40;;;;;;5071994;28;20091;-83
2022/07/05 11:52:36;;;;;;;3.60;2.80;;;28.30;65.30;;;;;;5052325;28;20035;-80
2022/07/05 11:55:04;;;;;;;3.78;2.50;;;28.30;66.30;;;;;;5066950;28;20052;-78
2022/07/05 11:57:30;;;;;;;3.85;2.50;;;28.30;64.90;;;;;;5065833;28;20020;-82
2022/07/05 11:59:56;;;;;;;5.32;2.63;;;28.40;64.80;;;;;;5068433;28;20059;-77
2022/07/05 12:02:22;;;;;;;3.78;2.40;;;28.50;64.80;;;;;;5083841;28;20081;-77
2022/07/05 12:04:48;;;;;;;4.97;2.70;;;28.50;65.00;;;;;;5068688;28;20039;-76
2022/07/05 12:07:29;;;;;;;4.18;3.00;;;28.00;65.70;;;;;;5068885;28;20119;-85
2022/07/05 12:12:42;;;;;;;4.57;2.70;;;27.90;66.30;;;;;;5070026;28;20089;-83
2022/07/05 12:15:13;;;;;;;5.45;2.92;;;28.10;66.30;;;;;;5071612;28;20031;-83
2022/07/05 12:17:40;;;;;;;;;;;28.30;66.20;;;;;;5054098;28;20021;-77
2022/07/05 12:20:07;;;;;;;5.10;2.90;;;28.60;66.10;;;;;;5070974;28;19912;-80
2022/07/05 12:22:44;;;;;;;4.70;2.97;;;28.30;66.50;;;;;;5069962;28;20078;-75
2022/07/05 12:25:15;;;;;;;4.10;2.70;;;28.40;65.80;;;;;;5050189;28;20044;-77
2022/07/05 12:27:42;;;;;;;5.00;3.40;;;28.20;67.90;;;;;;5063347;28;20094;-76
2022/07/05 12:30:10;;;;;;;4.63;3.05;;;28.10;67.00;;;;;;5052179;28;20402;-81
2022/07/05 12:32:53;;;;;;;6.30;5.03;;;28.20;67.70;;;;;;5074295;28;20099;-79
2022/07/05 12:35:41;;;;;;;7.30;3.33;;;28.40;66.90;;;;;;5072818;28;20036;-79
2022/07/05 12:38:09;;;;;;;4.75;3.30;;;28.50;67.40;;;;;;5052668;28;20474;-82
2022/07/05 12:40:37;;;;;;;5.05;2.60;;;28.40;67.30;;;;;;5056593;28;20033;-80
2022/07/05 12:43:07;;;;;;;4.60;3.17;;;28.30;67.70;;;;;;5073154;28;20597;-80
2022/07/05 12:47:55;;;;;;;5.22;2.88;;;28.30;67.40;;;;;;5080537;27;1479318;-76
2022/07/05 12:50:30;;;;;;;4.68;3.22;;;28.40;67.10;;;;;;5086341;28;20340;-81
2022/07/05 12:58:51;;;;;;;4.10;2.97;;;28.70;67.00;;;;;;5108457;28;20233;-82
2022/07/05 13:01:22;;;;;;;5.43;3.58;;;28.90;65.50;;;;;;5105060;28;20119;-76
2022/07/05 13:04:02;;;;;;;;;;;29.00;65.80;;;;;;5077981;28;20036;-84
2022/07/05 13:06:50;;;;;;;4.28;2.80;;;28.90;66.10;;;;;;5070835;28;20365;-77
2022/07/05 13:09:32;;;;;;;4.95;3.03;;;28.60;66.30;;;;;;5077479;28;20471;-80